Seneca, SC (29672)

11:27 PM EST on February 09, 2016 (GMT -0500)
KE4OGG-Seneca | | Change Station
CLOSE
Current Station
Personal Weather Station
Location: Seneca, SC
Elevation: 958 ft
Nearby Weather Stations

Elev 958 ft 34.68 °N, 82.95 °W | Updated 18 seconds ago

Overcast
Overcast
27.1 °F
Feels Like 20 °F
N
6.0
Wind Variable Wind from West
Gusts 6.9 mph

Today
High -- | Low -- °F
--% Chance of Precip.
Yesterday
High -- | Low -- °F
Precip. -- in
Pressure 29.94 in
Visibility 10.0 miles
Clouds Overcast 5000 ft
Windchill 20 °F
Dew Point 14 °F
Humidity 58%
Rainfall in
Snow Depth Not available.
7:23 AM 6:08 PM
Waxing Crescent, 3% visible
METAR KCEU 100354Z AUTO 29010G21KT 10SM OVC050 M01/M10 A2992 RMK AO2 SLP137 T10111100
Pressure 29.94 in
Visibility 10.0 miles
Clouds Overcast 5000 ft
Windchill 20 °F
Dew Point 14 °F
Humidity 58%
Rainfall in
Snow Depth Not available.
7:23 AM 6:08 PM
Waxing Crescent, 3% visible
METAR KCEU 100354Z AUTO 29010G21KT 10SM OVC050 M01/M10 A2992 RMK AO2 SLP137 T10111100
Winter Storm Nacio, the third winter storm in five days to affect the Northeast, is bringing pockets of locally heavy snow to parts of the Ohio Valley, Appalachians and mid-Atlantic states Tuesday. Winter storm warnings are posted for parts of southern Pennsylvania, southern Ohio and the higher peaks of the Appalachians. Winter weather advisories, generally for lighter snow accumulations, stretch from northeast Alabama and far north Georgia to southern Connecticut and Long Island.

10-Day Weather Forecast

Almanac

Astronomy

Feb. 09, 2016 Rise Set
Actual Time
Civil Twilight
Nautical Twilight
Astronomical Twilight
Moon
Length of Visible Light
Length of Day
Tomorrow will be .
, % of the Moon is Illuminated

Today's Extremes

State Highs State Lows

Community

WunderPhotos

Upload Photos

1,891,799 photos uploaded!

WunderBlog® & News

Nearby

Air Quality

  Air Quality AQ Index Pollutant
Not available.

Snow Depth

Station Depth Elevation

Earthquake Activity

City Distance Mag. Time & Date
Minimum magnitude displayed is 2.5.

Coastal Water Temperatures

Place Temperature

Stations

Nearby Weather Stations

Station Location Temp. Windchill Dew Point Humidity Wind Precip. Elev Updated Type
                   

Watches & Warnings

There are currently no watches in effect.